Estestar — 3ECR8 — position and weather

sailwx.info

Track history (hours):
 
Tides and Currents Weather Stations Pressure Air Temp Water Temp Dewpoint Dewpoint Depression Visibility Wind Speed Wind Dir Waves Ship Positions

Estestar

Last reported at 2014-Oct-28 21:11 UTC. Time now 2014-Nov-01 06:10 UTC.
Position N 43°12' E 009°41'.

Length 133 m; draft 7.2 m.

Type: Cargo ship. MMSI: 371448000.

Date/timePositionNaut miles runAvg speedWind from/ knotsBaromVisibWave heightAir tempDewpointWater temp
2014-Oct-28 21:11N 43°12' E 009°41'610.0
2014-Oct-28 20:34N 43°18' E 009°43'10 9.8
2014-Oct-28 19:34N 43°28' E 009°45'10 9.6
2014-Oct-28 18:34N 43°37' E 009°49'10 9.9
2014-Oct-28 17:34N 43°46' E 009°54'10 9.9
2014-Oct-28 16:34N 43°55' E 009°58'7 7.1
2014-Oct-28 15:32N 44°02' E 010°02'0 0.1
2014-Oct-28 14:32N 44°02' E 010°02'0 0.0
2014-Oct-28 13:32N 44°02' E 010°02'0 0.0
2014-Oct-28 12:32N 44°02' E 010°02'0 0.0
2014-Oct-28 10:08N 44°02' E 010°02'0 0.0
2014-Oct-28 09:29N 44°02' E 010°02'0 0.0
2014-Oct-28 08:32N 44°02' E 010°02'0 0.0
2014-Oct-28 07:29N 44°02' E 010°02'0 0.0
2014-Oct-28 06:29N 44°02' E 010°02'0 0.0
2014-Oct-28 05:29N 44°02' E 010°02'0 0.0
2014-Oct-28 04:23N 44°02' E 010°02'0 0.0
2014-Oct-28 03:29N 44°02' E 010°02'0 0.0
2014-Oct-28 02:29N 44°02' E 010°02'0 0.0
2014-Oct-28 01:29N 44°02' E 010°02'0 0.0
2014-Oct-28 00:29N 44°02' E 010°02'0 0.0
2014-Oct-27 23:23N 44°02' E 010°02'0 0.0
2014-Oct-27 22:29N 44°02' E 010°02'0 0.0
2014-Oct-27 21:29N 44°02' E 010°02'0 0.0
2014-Oct-27 20:29N 44°02' E 010°02'0 0.0
2014-Oct-27 19:32N 44°02' E 010°02'0 0.0
2014-Oct-27 18:26N 44°02' E 010°02'0 0.0
2014-Oct-27 17:29N 44°02' E 010°02'0 0.0
2014-Oct-27 16:17N 44°02' E 010°02'0 0.0
2014-Oct-27 15:32N 44°02' E 010°02'0 0.0
2014-Oct-27 14:08N 44°02' E 010°02'0 0.0
2014-Oct-27 13:20N 44°02' E 010°02'0 0.0
2014-Oct-27 12:32N 44°02' E 010°02'0 0.0
2014-Oct-27 11:05N 44°02' E 010°02'0 0.0
2014-Oct-27 10:32N 44°02' E 010°02'0 0.0
2014-Oct-27 09:23N 44°02' E 010°02'0 0.0
2014-Oct-27 08:32N 44°02' E 010°02'0 0.0
2014-Oct-27 07:32N 44°02' E 010°02'0 0.0
2014-Oct-27 06:29N 44°02' E 010°02'0 0.0
2014-Oct-27 05:32N 44°02' E 010°02'0 0.0
2014-Oct-27 04:32N 44°02' E 010°02'0 0.0
2014-Oct-27 03:26N 44°02' E 010°02'0 0.0
2014-Oct-27 02:32N 44°02' E 010°02'0 0.0
2014-Oct-27 01:32N 44°02' E 010°02'0 0.0
2014-Oct-27 00:32N 44°02' E 010°02'0 0.0
2014-Oct-26 23:32N 44°02' E 010°02'0 0.0
2014-Oct-26 22:32N 44°02' E 010°02'0 0.0
2014-Oct-26 21:32N 44°02' E 010°02'0 0.0
2014-Oct-26 20:32N 44°02' E 010°02'0 0.0
2014-Oct-26 19:32N 44°02' E 010°02'0 0.0
2014-Oct-26 18:32N 44°02' E 010°02'0 0.0
2014-Oct-26 17:29N 44°02' E 010°02'0 0.0
2014-Oct-26 16:32N 44°02' E 010°02'0 0.0
2014-Oct-26 15:29N 44°02' E 010°02'0 0.0
2014-Oct-26 14:29N 44°02' E 010°02'0 0.0
2014-Oct-26 13:29N 44°02' E 010°02'0 0.0
2014-Oct-26 12:32N 44°02' E 010°02'0 0.0
2014-Oct-26 11:32N 44°02' E 010°02'0 0.0
2014-Oct-26 10:32N 44°02' E 010°02'0 0.0
2014-Oct-26 09:32N 44°02' E 010°02'0 0.0
2014-Oct-26 08:32N 44°02' E 010°02'0 0.0
2014-Oct-26 07:28N 44°02' E 010°02'1 1.2
2014-Oct-26 06:31N 44°01' E 010°01'0 0.0
2014-Oct-26 05:31N 44°01' E 010°01'0 0.0
2014-Oct-26 04:31N 44°01' E 010°01'0 0.0
2014-Oct-26 03:31N 44°01' E 010°01'0 0.0
2014-Oct-26 02:31N 44°01' E 010°01'0 0.0
2014-Oct-26 01:31N 44°01' E 010°01'0 0.0
2014-Oct-26 00:31N 44°01' E 010°01'0 0.0
2014-Oct-25 23:31N 44°01' E 010°01'0 0.0
2014-Oct-25 22:31N 44°01' E 010°01'0 0.0
2014-Oct-25 21:31N 44°01' E 010°01'0 0.0
2014-Oct-25 20:31N 44°01' E 010°01'0 0.0
2014-Oct-25 19:31N 44°01' E 010°01'0 0.0
2014-Oct-25 18:33N 44°01' E 010°01'5 4.8
2014-Oct-25 17:34N 43°57' E 009°57'1111.5
2014-Oct-25 16:34N 43°49' E 009°46'1111.4
2014-Oct-25 15:34N 43°41' E 009°35'1111.2
2014-Oct-25 14:33N 43°33' E 009°25'1111.2
2014-Oct-25 13:34N 43°24' E 009°14'1111.0
2014-Oct-25 12:33N 43°16' E 009°04'18311.3
2014-Oct-24 20:23N 41°05' E 006°11'160 5.5
2014-Oct-23 15:26N 39°09' E 003°47'2110.1
2014-Oct-23 13:22N 38°55' E 003°28'1310.7
2014-Oct-23 12:12N 38°47' E 003°16'812.1
2014-Oct-23 11:31N 38°41' E 003°08'1510.1
2014-Oct-23 10:05N 38°32' E 002°54'1010.8
2014-Oct-23 09:07N 38°25' E 002°44'226 6.3
2014-Oct-21 21:08N 35°45' W 000°36'0 0.0
2014-Oct-21 19:32N 35°45' W 000°36'0 0.0
2014-Oct-21 14:31N 35°45' W 000°36'0 0.0
2014-Oct-21 13:32N 35°45' W 000°36'0 0.0
2014-Oct-21 12:32N 35°45' W 000°36'0 0.0
2014-Oct-20 23:07N 35°45' W 000°36'0 0.0
2014-Oct-20 22:25N 35°45' W 000°36'0 0.0
2014-Oct-20 21:32N 35°45' W 000°36'0 0.0
2014-Oct-20 18:20N 35°45' W 000°36'0 0.0
2014-Oct-20 16:25N 35°45' W 000°36'0 0.0
2014-Oct-19 20:26N 35°45' W 000°37'0 0.1
2014-Oct-19 19:26N 35°45' W 000°36'  
Track history (hours):
 
Tides and Currents Weather Stations Pressure Air Temp Water Temp Dewpoint Dewpoint Depression Visibility Wind Speed Wind Dir Waves Ship Positions

Estestar

Last reported at 2014-Oct-28 21:11 UTC. Time now 2014-Nov-01 06:10 UTC.
Position N 43°12' E 009°41'.

Length 133 m; draft 7.2 m.

Type: Cargo ship. MMSI: 371448000.

Date/timePositionNaut miles runAvg speedWind from/ knotsBaromVisibWave heightAir tempDewpointWater temp
2014-Oct-28 21:11N 43°12' E 009°41'610.0
2014-Oct-28 20:34N 43°18' E 009°43'10 9.8
2014-Oct-28 19:34N 43°28' E 009°45'10 9.6
2014-Oct-28 18:34N 43°37' E 009°49'10 9.9
2014-Oct-28 17:34N 43°46' E 009°54'10 9.9
2014-Oct-28 16:34N 43°55' E 009°58'7 7.1
2014-Oct-28 15:32N 44°02' E 010°02'0 0.1
2014-Oct-28 14:32N 44°02' E 010°02'0 0.0
2014-Oct-28 13:32N 44°02' E 010°02'0 0.0
2014-Oct-28 12:32N 44°02' E 010°02'0 0.0
2014-Oct-28 10:08N 44°02' E 010°02'0 0.0
2014-Oct-28 09:29N 44°02' E 010°02'0 0.0
2014-Oct-28 08:32N 44°02' E 010°02'0 0.0
2014-Oct-28 07:29N 44°02' E 010°02'0 0.0
2014-Oct-28 06:29N 44°02' E 010°02'0 0.0
2014-Oct-28 05:29N 44°02' E 010°02'0 0.0
2014-Oct-28 04:23N 44°02' E 010°02'0 0.0
2014-Oct-28 03:29N 44°02' E 010°02'0 0.0
2014-Oct-28 02:29N 44°02' E 010°02'0 0.0
2014-Oct-28 01:29N 44°02' E 010°02'0 0.0
2014-Oct-28 00:29N 44°02' E 010°02'0 0.0
2014-Oct-27 23:23N 44°02' E 010°02'0 0.0
2014-Oct-27 22:29N 44°02' E 010°02'0 0.0
2014-Oct-27 21:29N 44°02' E 010°02'0 0.0
2014-Oct-27 20:29N 44°02' E 010°02'0 0.0
2014-Oct-27 19:32N 44°02' E 010°02'0 0.0
2014-Oct-27 18:26N 44°02' E 010°02'0 0.0
2014-Oct-27 17:29N 44°02' E 010°02'0 0.0
2014-Oct-27 16:17N 44°02' E 010°02'0 0.0
2014-Oct-27 15:32N 44°02' E 010°02'0 0.0
2014-Oct-27 14:08N 44°02' E 010°02'0 0.0
2014-Oct-27 13:20N 44°02' E 010°02'0 0.0
2014-Oct-27 12:32N 44°02' E 010°02'0 0.0
2014-Oct-27 11:05N 44°02' E 010°02'0 0.0
2014-Oct-27 10:32N 44°02' E 010°02'0 0.0
2014-Oct-27 09:23N 44°02' E 010°02'0 0.0
2014-Oct-27 08:32N 44°02' E 010°02'0 0.0
2014-Oct-27 07:32N 44°02' E 010°02'0 0.0
2014-Oct-27 06:29N 44°02' E 010°02'0 0.0
2014-Oct-27 05:32N 44°02' E 010°02'0 0.0
2014-Oct-27 04:32N 44°02' E 010°02'0 0.0
2014-Oct-27 03:26N 44°02' E 010°02'0 0.0
2014-Oct-27 02:32N 44°02' E 010°02'0 0.0
2014-Oct-27 01:32N 44°02' E 010°02'0 0.0
2014-Oct-27 00:32N 44°02' E 010°02'0 0.0
2014-Oct-26 23:32N 44°02' E 010°02'0 0.0
2014-Oct-26 22:32N 44°02' E 010°02'0 0.0
2014-Oct-26 21:32N 44°02' E 010°02'0 0.0
2014-Oct-26 20:32N 44°02' E 010°02'0 0.0
2014-Oct-26 19:32N 44°02' E 010°02'0 0.0
2014-Oct-26 18:32N 44°02' E 010°02'0 0.0
2014-Oct-26 17:29N 44°02' E 010°02'0 0.0
2014-Oct-26 16:32N 44°02' E 010°02'0 0.0
2014-Oct-26 15:29N 44°02' E 010°02'0 0.0
2014-Oct-26 14:29N 44°02' E 010°02'0 0.0
2014-Oct-26 13:29N 44°02' E 010°02'0 0.0
2014-Oct-26 12:32N 44°02' E 010°02'0 0.0
2014-Oct-26 11:32N 44°02' E 010°02'0 0.0
2014-Oct-26 10:32N 44°02' E 010°02'0 0.0
2014-Oct-26 09:32N 44°02' E 010°02'0 0.0
2014-Oct-26 08:32N 44°02' E 010°02'0 0.0
2014-Oct-26 07:28N 44°02' E 010°02'1 1.2
2014-Oct-26 06:31N 44°01' E 010°01'0 0.0
2014-Oct-26 05:31N 44°01' E 010°01'0 0.0
2014-Oct-26 04:31N 44°01' E 010°01'0 0.0
2014-Oct-26 03:31N 44°01' E 010°01'0 0.0
2014-Oct-26 02:31N 44°01' E 010°01'0 0.0
2014-Oct-26 01:31N 44°01' E 010°01'0 0.0
2014-Oct-26 00:31N 44°01' E 010°01'0 0.0
2014-Oct-25 23:31N 44°01' E 010°01'0 0.0
2014-Oct-25 22:31N 44°01' E 010°01'0 0.0
2014-Oct-25 21:31N 44°01' E 010°01'0 0.0
2014-Oct-25 20:31N 44°01' E 010°01'0 0.0
2014-Oct-25 19:31N 44°01' E 010°01'0 0.0
2014-Oct-25 18:33N 44°01' E 010°01'5 4.8
2014-Oct-25 17:34N 43°57' E 009°57'1111.5
2014-Oct-25 16:34N 43°49' E 009°46'1111.4
2014-Oct-25 15:34N 43°41' E 009°35'1111.2
2014-Oct-25 14:33N 43°33' E 009°25'1111.2
2014-Oct-25 13:34N 43°24' E 009°14'1111.0
2014-Oct-25 12:33N 43°16' E 009°04'18311.3
2014-Oct-24 20:23N 41°05' E 006°11'160 5.5
2014-Oct-23 15:26N 39°09' E 003°47'2110.1
2014-Oct-23 13:22N 38°55' E 003°28'1310.7
2014-Oct-23 12:12N 38°47' E 003°16'812.1
2014-Oct-23 11:31N 38°41' E 003°08'1510.1
2014-Oct-23 10:05N 38°32' E 002°54'1010.8
2014-Oct-23 09:07N 38°25' E 002°44'226 6.3
2014-Oct-21 21:08N 35°45' W 000°36'0 0.0
2014-Oct-21 19:32N 35°45' W 000°36'0 0.0
2014-Oct-21 14:31N 35°45' W 000°36'0 0.0
2014-Oct-21 13:32N 35°45' W 000°36'0 0.0
2014-Oct-21 12:32N 35°45' W 000°36'0 0.0
2014-Oct-20 23:07N 35°45' W 000°36'0 0.0
2014-Oct-20 22:25N 35°45' W 000°36'0 0.0
2014-Oct-20 21:32N 35°45' W 000°36'0 0.0
2014-Oct-20 18:20N 35°45' W 000°36'0 0.0
2014-Oct-20 16:25N 35°45' W 000°36'0 0.0
2014-Oct-19 20:26N 35°45' W 000°37'0 0.1
2014-Oct-19 19:26N 35°45' W 000°36'  

Dump ship's entire track history